Orofino, ID

7:54 PM PDT on June 01, 2015 (GMT -0700)
Elk River | | Change Station
CLOSE
Current Station
Personal Weather Station
Location: Elk River, ID
Elevation: 2846 ft
Nearby Weather Stations

Elev 2846 ft 46.78 °N, 116.18 °W | Updated 42 seconds ago

Thunderstorm
Thunderstorm
57.4 °F
Feels Like 57.4 °F
N
4.0
Wind Variable Wind from SW
Gusts 13.0 mph

Today
High -- | Low -- °F
--% Chance of Precip.
Yesterday
High -- | Low -- °F
Precip. -- in
4:55 AM 8:29 PM
Full, 100% visible
Pressure 29.88 in
Visibility 10.0 miles
Clouds Scattered Clouds 9000 ft
Mostly Cloudy 12000 ft
Dew Point 50 °F
Humidity 77%
Rainfall 0.00 in
Snow Depth Not available.
UV 0 out of 12
Pollen 7.10 out of 12
Air Quality Not available.
Flu Activity No Activity
METAR KGIC 020235Z AUTO 21006KT 10SM SCT090 BKN120 14/09 A2988 RMK AO1 P0002 T01350089

More Conditions Fewer Conditions

Pressure 29.88 in
Visibility 10.0 miles
Clouds Scattered Clouds 9000 ft
Mostly Cloudy 12000 ft
Dew Point 50 °F
Humidity 77%
Rainfall 0.00 in
Snow Depth Not available.
UV 0 out of 12
Pollen 7.10 out of 12
Air Quality Not available.
Flu Activity No Activity
METAR KGIC 020235Z AUTO 21006KT 10SM SCT090 BKN120 14/09 A2988 RMK AO1 P0002 T01350089

More Conditions Fewer Conditions

10-Day Weather Forecast

Almanac

Astronomy

Jun. 01, 2015 Rise Set
Actual Time
Civil Twilight
Nautical Twilight
Astronomical Twilight
Moon
Length of Visible Light
Length of Day
Tomorrow will be .
, % of the Moon is Illuminated

Today's Extremes

State Highs State Lows

Community

WunderPhotos

Upload Photos

1,825,858 photos uploaded!

WunderBlogs® & News

Nearby

Air Quality

  Air Quality AQ Index Pollutant
Not available.

Snow Depth

Station Depth Elevation

Earthquake Activity

City Distance Mag. Time & Date
Minimum magnitude displayed is 2.5.

Coastal Water Temperatures

Place Temperature

Stations

Nearby Weather Stations

Station Location Temp. Windchill Dew Point Humidity Wind Precip. Elev Updated Type